sensor_id;sensor_type;location;lat;lon;timestamp;temperature;humidity
25024;DHT22;13033;50.936;5.334;2023-02-27T00:02:15;1.40;99.90
25024;DHT22;13033;50.936;5.334;2023-02-27T00:04:41;1.40;99.90
25024;DHT22;13033;50.936;5.334;2023-02-27T00:07:06;1.30;99.90
25024;DHT22;13033;50.936;5.334;2023-02-27T00:09:33;1.30;99.90
25024;DHT22;13033;50.936;5.334;2023-02-27T00:11:59;1.30;99.90
25024;DHT22;13033;50.936;5.334;2023-02-27T00:14:25;1.30;99.90
25024;DHT22;13033;50.936;5.334;2023-02-27T00:16:50;1.40;99.90
25024;DHT22;13033;50.936;5.334;2023-02-27T00:19:16;1.30;99.90
25024;DHT22;13033;50.936;5.334;2023-02-27T00:21:42;1.30;99.90
25024;DHT22;13033;50.936;5.334;2023-02-27T00:24:10;1.30;99.90
25024;DHT22;13033;50.936;5.334;2023-02-27T00:26:36;1.30;99.90
25024;DHT22;13033;50.936;5.334;2023-02-27T00:29:03;1.30;99.90
25024;DHT22;13033;50.936;5.334;2023-02-27T00:31:29;1.20;99.90
25024;DHT22;13033;50.936;5.334;2023-02-27T00:33:55;1.10;99.90
25024;DHT22;13033;50.936;5.334;2023-02-27T00:36:21;1.00;99.90
25024;DHT22;13033;50.936;5.334;2023-02-27T00:38:47;1.00;99.90
25024;DHT22;13033;50.936;5.334;2023-02-27T00:41:13;1.00;99.90
25024;DHT22;13033;50.936;5.334;2023-02-27T00:43:39;0.90;99.90
25024;DHT22;13033;50.936;5.334;2023-02-27T00:46:04;1.00;99.90
25024;DHT22;13033;50.936;5.334;2023-02-27T00:48:30;0.90;99.90
25024;DHT22;13033;50.936;5.334;2023-02-27T00:50:56;0.90;99.90
25024;DHT22;13033;50.936;5.334;2023-02-27T00:53:22;0.80;99.90
25024;DHT22;13033;50.936;5.334;2023-02-27T00:55:48;0.80;99.90
25024;DHT22;13033;50.936;5.334;2023-02-27T00:58:14;0.80;99.90
25024;DHT22;13033;50.936;5.334;2023-02-27T01:00:40;0.80;99.90
25024;DHT22;13033;50.936;5.334;2023-02-27T01:03:05;0.70;99.90
25024;DHT22;13033;50.936;5.334;2023-02-27T01:05:31;0.70;99.90
25024;DHT22;13033;50.936;5.334;2023-02-27T01:07:57;0.80;99.90
25024;DHT22;13033;50.936;5.334;2023-02-27T01:10:23;0.70;99.90
25024;DHT22;13033;50.936;5.334;2023-02-27T01:12:48;0.70;99.90
25024;DHT22;13033;50.936;5.334;2023-02-27T01:15:14;0.70;99.90
25024;DHT22;13033;50.936;5.334;2023-02-27T01:17:39;0.70;99.90
25024;DHT22;13033;50.936;5.334;2023-02-27T01:20:06;0.80;99.90
25024;DHT22;13033;50.936;5.334;2023-02-27T01:22:33;0.70;99.90
25024;DHT22;13033;50.936;5.334;2023-02-27T01:24:59;0.60;99.90
25024;DHT22;13033;50.936;5.334;2023-02-27T01:27:25;0.60;99.90
25024;DHT22;13033;50.936;5.334;2023-02-27T01:29:50;0.60;99.90
25024;DHT22;13033;50.936;5.334;2023-02-27T01:32:16;0.60;99.90
25024;DHT22;13033;50.936;5.334;2023-02-27T01:34:41;0.60;99.90
25024;DHT22;13033;50.936;5.334;2023-02-27T01:37:07;0.60;99.90
25024;DHT22;13033;50.936;5.334;2023-02-27T01:39:33;0.60;99.90
25024;DHT22;13033;50.936;5.334;2023-02-27T01:41:59;0.70;99.90
25024;DHT22;13033;50.936;5.334;2023-02-27T01:44:27;0.70;99.90
25024;DHT22;13033;50.936;5.334;2023-02-27T01:46:54;0.80;99.90
25024;DHT22;13033;50.936;5.334;2023-02-27T01:49:28;0.70;99.90
25024;DHT22;13033;50.936;5.334;2023-02-27T01:52:01;0.70;99.90
25024;DHT22;13033;50.936;5.334;2023-02-27T01:54:32;0.60;99.90
25024;DHT22;13033;50.936;5.334;2023-02-27T01:56:59;0.60;99.90
25024;DHT22;13033;50.936;5.334;2023-02-27T01:59:27;0.50;99.90
25024;DHT22;13033;50.936;5.334;2023-02-27T02:01:55;0.50;99.90
25024;DHT22;13033;50.936;5.334;2023-02-27T02:06:56;0.50;99.90
25024;DHT22;13033;50.936;5.334;2023-02-27T02:09:24;0.80;99.90
25024;DHT22;13033;50.936;5.334;2023-02-27T02:11:50;0.80;99.90
25024;DHT22;13033;50.936;5.334;2023-02-27T02:14:16;0.70;99.90
25024;DHT22;13033;50.936;5.334;2023-02-27T02:42:35;0.50;99.90
25024;DHT22;13033;50.936;5.334;2023-02-27T02:45:11;0.50;99.90
25024;DHT22;13033;50.936;5.334;2023-02-27T02:53:17;0.40;99.90
25024;DHT22;13033;50.936;5.334;2023-02-27T02:55:50;0.40;99.90
25024;DHT22;13033;50.936;5.334;2023-02-27T02:58:25;0.30;99.90
25024;DHT22;13033;50.936;5.334;2023-02-27T03:01:06;0.30;99.90
25024;DHT22;13033;50.936;5.334;2023-02-27T03:03:46;0.30;99.90
25024;DHT22;13033;50.936;5.334;2023-02-27T03:06:21;0.30;99.90
25024;DHT22;13033;50.936;5.334;2023-02-27T03:09:04;0.30;99.90
25024;DHT22;13033;50.936;5.334;2023-02-27T03:11:33;0.30;99.90
25024;DHT22;13033;50.936;5.334;2023-02-27T03:14:33;0.30;99.90
25024;DHT22;13033;50.936;5.334;2023-02-27T03:17:06;0.30;99.90
25024;DHT22;13033;50.936;5.334;2023-02-27T03:19:49;0.30;99.90
25024;DHT22;13033;50.936;5.334;2023-02-27T03:22:22;0.30;99.90
25024;DHT22;13033;50.936;5.334;2023-02-27T03:24:52;0.20;99.90
25024;DHT22;13033;50.936;5.334;2023-02-27T03:27:19;0.20;99.90
25024;DHT22;13033;50.936;5.334;2023-02-27T03:30:04;0.30;99.90
25024;DHT22;13033;50.936;5.334;2023-02-27T03:33:00;0.30;99.90
25024;DHT22;13033;50.936;5.334;2023-02-27T03:38:44;0.20;99.90
25024;DHT22;13033;50.936;5.334;2023-02-27T03:46:47;0.10;99.90
25024;DHT22;13033;50.936;5.334;2023-02-27T03:49:12;0.20;99.90
25024;DHT22;13033;50.936;5.334;2023-02-27T03:51:38;0.10;99.90
25024;DHT22;13033;50.936;5.334;2023-02-27T03:54:20;0.00;99.90
25024;DHT22;13033;50.936;5.334;2023-02-27T03:56:53;0.00;99.90
25024;DHT22;13033;50.936;5.334;2023-02-27T03:59:22;0.00;99.90
25024;DHT22;13033;50.936;5.334;2023-02-27T04:01:48;0.00;99.90
25024;DHT22;13033;50.936;5.334;2023-02-27T04:04:16;0.00;99.90
25024;DHT22;13033;50.936;5.334;2023-02-27T04:06:51;0.00;99.90
25024;DHT22;13033;50.936;5.334;2023-02-27T04:17:33;0.00;99.90
25024;DHT22;13033;50.936;5.334;2023-02-27T04:26:11;-0.20;99.90
25024;DHT22;13033;50.936;5.334;2023-02-27T04:31:19;-0.20;99.90
25024;DHT22;13033;50.936;5.334;2023-02-27T04:34:11;-0.20;99.90
25024;DHT22;13033;50.936;5.334;2023-02-27T04:36:59;-0.20;99.90
25024;DHT22;13033;50.936;5.334;2023-02-27T04:39:47;-0.20;99.90
25024;DHT22;13033;50.936;5.334;2023-02-27T04:42:22;-0.20;99.90
25024;DHT22;13033;50.936;5.334;2023-02-27T04:44:50;0.00;99.90
25024;DHT22;13033;50.936;5.334;2023-02-27T04:47:19;0.10;99.90
25024;DHT22;13033;50.936;5.334;2023-02-27T04:49:52;0.10;99.90
25024;DHT22;13033;50.936;5.334;2023-02-27T04:52:23;0.00;99.90
25024;DHT22;13033;50.936;5.334;2023-02-27T04:57:42;-0.10;99.90
25024;DHT22;13033;50.936;5.334;2023-02-27T05:00:12;-0.10;99.90
25024;DHT22;13033;50.936;5.334;2023-02-27T05:02:45;-0.10;99.90
25024;DHT22;13033;50.936;5.334;2023-02-27T05:05:19;-0.10;99.90
25024;DHT22;13033;50.936;5.334;2023-02-27T05:07:52;-0.10;99.90
25024;DHT22;13033;50.936;5.334;2023-02-27T05:13:15;-0.10;99.90
25024;DHT22;13033;50.936;5.334;2023-02-27T05:15:58;-0.10;99.90
25024;DHT22;13033;50.936;5.334;2023-02-27T05:18:26;-0.20;99.90
25024;DHT22;13033;50.936;5.334;2023-02-27T05:20:55;-0.20;99.90
25024;DHT22;13033;50.936;5.334;2023-02-27T05:26:50;-0.20;99.90
25024;DHT22;13033;50.936;5.334;2023-02-27T05:32:44;-0.20;99.90
25024;DHT22;13033;50.936;5.334;2023-02-27T05:35:33;-0.20;99.90
25024;DHT22;13033;50.936;5.334;2023-02-27T05:41:09;-0.30;99.90
25024;DHT22;13033;50.936;5.334;2023-02-27T05:43:49;-0.30;99.90
25024;DHT22;13033;50.936;5.334;2023-02-27T05:46:23;-0.40;99.90
25024;DHT22;13033;50.936;5.334;2023-02-27T05:49:13;-0.30;99.90
25024;DHT22;13033;50.936;5.334;2023-02-27T05:51:41;-0.30;99.90
25024;DHT22;13033;50.936;5.334;2023-02-27T05:57:17;-0.20;99.90
25024;DHT22;13033;50.936;5.334;2023-02-27T05:59:50;-0.20;99.90
25024;DHT22;13033;50.936;5.334;2023-02-27T06:02:18;-0.30;99.90
25024;DHT22;13033;50.936;5.334;2023-02-27T06:04:44;-0.20;99.90
25024;DHT22;13033;50.936;5.334;2023-02-27T06:07:14;-0.30;99.90
25024;DHT22;13033;50.936;5.334;2023-02-27T06:09:41;-0.30;99.90
25024;DHT22;13033;50.936;5.334;2023-02-27T06:12:07;-0.30;99.90
25024;DHT22;13033;50.936;5.334;2023-02-27T06:14:33;-0.30;99.90
25024;DHT22;13033;50.936;5.334;2023-02-27T06:16:59;-0.30;99.90
25024;DHT22;13033;50.936;5.334;2023-02-27T06:19:24;-0.30;99.90
25024;DHT22;13033;50.936;5.334;2023-02-27T06:21:50;-0.40;99.90
25024;DHT22;13033;50.936;5.334;2023-02-27T06:24:15;-0.50;99.90
25024;DHT22;13033;50.936;5.334;2023-02-27T06:26:41;-0.40;99.90
25024;DHT22;13033;50.936;5.334;2023-02-27T06:29:07;-0.40;99.90
25024;DHT22;13033;50.936;5.334;2023-02-27T06:31:32;-0.40;99.90
25024;DHT22;13033;50.936;5.334;2023-02-27T06:33:58;-0.40;99.90
25024;DHT22;13033;50.936;5.334;2023-02-27T06:36:24;-0.40;99.90
25024;DHT22;13033;50.936;5.334;2023-02-27T06:38:49;-0.40;99.90
25024;DHT22;13033;50.936;5.334;2023-02-27T06:41:15;-0.50;99.90
25024;DHT22;13033;50.936;5.334;2023-02-27T06:43:41;-0.50;99.90
25024;DHT22;13033;50.936;5.334;2023-02-27T06:46:06;-0.40;99.90
25024;DHT22;13033;50.936;5.334;2023-02-27T06:48:32;-0.50;99.90
25024;DHT22;13033;50.936;5.334;2023-02-27T06:50:58;-0.50;99.90
25024;DHT22;13033;50.936;5.334;2023-02-27T06:53:24;-0.40;99.90
25024;DHT22;13033;50.936;5.334;2023-02-27T06:55:50;-0.30;99.90
25024;DHT22;13033;50.936;5.334;2023-02-27T06:58:16;-0.40;99.90
25024;DHT22;13033;50.936;5.334;2023-02-27T07:00:42;-0.50;99.90
25024;DHT22;13033;50.936;5.334;2023-02-27T07:03:08;-0.30;99.90
25024;DHT22;13033;50.936;5.334;2023-02-27T07:05:34;-0.30;99.90
25024;DHT22;13033;50.936;5.334;2023-02-27T07:08:01;-0.30;99.90
25024;DHT22;13033;50.936;5.334;2023-02-27T07:10:28;-0.30;99.90
25024;DHT22;13033;50.936;5.334;2023-02-27T07:12:54;-0.30;99.90
25024;DHT22;13033;50.936;5.334;2023-02-27T07:15:20;-0.20;99.90
25024;DHT22;13033;50.936;5.334;2023-02-27T07:17:46;-0.10;99.90
25024;DHT22;13033;50.936;5.334;2023-02-27T07:20:12;0.00;99.90
25024;DHT22;13033;50.936;5.334;2023-02-27T07:22:38;-0.20;99.90
25024;DHT22;13033;50.936;5.334;2023-02-27T07:25:04;0.00;99.90
25024;DHT22;13033;50.936;5.334;2023-02-27T07:27:30;0.10;99.90
25024;DHT22;13033;50.936;5.334;2023-02-27T07:29:56;0.10;99.90
25024;DHT22;13033;50.936;5.334;2023-02-27T07:32:22;0.10;99.90
25024;DHT22;13033;50.936;5.334;2023-02-27T07:34:48;0.10;99.90
25024;DHT22;13033;50.936;5.334;2023-02-27T07:37:13;0.20;99.90
25024;DHT22;13033;50.936;5.334;2023-02-27T07:39:39;0.20;99.90
25024;DHT22;13033;50.936;5.334;2023-02-27T07:42:05;0.30;99.90
25024;DHT22;13033;50.936;5.334;2023-02-27T07:44:31;0.40;99.90
25024;DHT22;13033;50.936;5.334;2023-02-27T07:46:57;0.40;99.90
25024;DHT22;13033;50.936;5.334;2023-02-27T07:49:22;0.40;99.90
25024;DHT22;13033;50.936;5.334;2023-02-27T07:51:48;0.50;99.90
25024;DHT22;13033;50.936;5.334;2023-02-27T07:54:14;0.60;99.90
25024;DHT22;13033;50.936;5.334;2023-02-27T07:56:40;0.60;99.90
25024;DHT22;13033;50.936;5.334;2023-02-27T07:59:05;0.60;99.90
25024;DHT22;13033;50.936;5.334;2023-02-27T08:01:31;0.80;99.90
25024;DHT22;13033;50.936;5.334;2023-02-27T08:03:57;0.90;99.90
25024;DHT22;13033;50.936;5.334;2023-02-27T08:06:23;1.00;99.90
25024;DHT22;13033;50.936;5.334;2023-02-27T08:08:49;0.90;99.90
25024;DHT22;13033;50.936;5.334;2023-02-27T08:11:15;0.80;99.90
25024;DHT22;13033;50.936;5.334;2023-02-27T08:13:40;0.90;99.90
25024;DHT22;13033;50.936;5.334;2023-02-27T08:16:06;1.00;99.90
25024;DHT22;13033;50.936;5.334;2023-02-27T08:18:32;1.00;99.90
25024;DHT22;13033;50.936;5.334;2023-02-27T08:20:58;1.10;99.90
25024;DHT22;13033;50.936;5.334;2023-02-27T08:23:24;1.20;99.90
25024;DHT22;13033;50.936;5.334;2023-02-27T08:25:49;1.40;99.90
25024;DHT22;13033;50.936;5.334;2023-02-27T08:28:15;1.50;99.90
25024;DHT22;13033;50.936;5.334;2023-02-27T08:30:43;1.60;99.90
25024;DHT22;13033;50.936;5.334;2023-02-27T08:33:09;1.80;99.90
25024;DHT22;13033;50.936;5.334;2023-02-27T08:35:35;1.90;99.90
25024;DHT22;13033;50.936;5.334;2023-02-27T08:38:01;2.00;99.90
25024;DHT22;13033;50.936;5.334;2023-02-27T08:40:26;1.90;99.90
25024;DHT22;13033;50.936;5.334;2023-02-27T08:42:52;2.00;99.90
25024;DHT22;13033;50.936;5.334;2023-02-27T08:45:17;2.10;99.90
25024;DHT22;13033;50.936;5.334;2023-02-27T08:47:43;2.30;99.90
25024;DHT22;13033;50.936;5.334;2023-02-27T08:50:12;2.40;99.90
25024;DHT22;13033;50.936;5.334;2023-02-27T08:52:38;2.50;99.90
25024;DHT22;13033;50.936;5.334;2023-02-27T08:55:04;2.60;99.90
25024;DHT22;13033;50.936;5.334;2023-02-27T08:57:31;2.60;99.90
25024;DHT22;13033;50.936;5.334;2023-02-27T08:59:56;2.60;99.90
25024;DHT22;13033;50.936;5.334;2023-02-27T09:02:22;2.60;99.90
25024;DHT22;13033;50.936;5.334;2023-02-27T09:04:53;2.60;99.90
25024;DHT22;13033;50.936;5.334;2023-02-27T09:07:19;2.70;99.90
25024;DHT22;13033;50.936;5.334;2023-02-27T09:09:44;2.80;99.90
25024;DHT22;13033;50.936;5.334;2023-02-27T09:12:10;2.90;99.90
25024;DHT22;13033;50.936;5.334;2023-02-27T09:14:36;3.00;99.90
25024;DHT22;13033;50.936;5.334;2023-02-27T09:17:03;3.20;99.90
25024;DHT22;13033;50.936;5.334;2023-02-27T09:19:28;3.40;99.90
25024;DHT22;13033;50.936;5.334;2023-02-27T09:21:54;3.30;99.90
25024;DHT22;13033;50.936;5.334;2023-02-27T09:24:20;3.30;99.90
25024;DHT22;13033;50.936;5.334;2023-02-27T09:26:47;3.30;99.90
25024;DHT22;13033;50.936;5.334;2023-02-27T09:29:13;3.30;99.90
25024;DHT22;13033;50.936;5.334;2023-02-27T09:31:38;3.40;99.90
25024;DHT22;13033;50.936;5.334;2023-02-27T09:34:04;3.50;99.90
25024;DHT22;13033;50.936;5.334;2023-02-27T09:36:30;3.60;99.90
25024;DHT22;13033;50.936;5.334;2023-02-27T09:38:57;3.70;99.90
25024;DHT22;13033;50.936;5.334;2023-02-27T09:44:41;3.60;99.90
25024;DHT22;13033;50.936;5.334;2023-02-27T09:47:45;3.80;99.90
25024;DHT22;13033;50.936;5.334;2023-02-27T09:50:48;4.10;99.90
25024;DHT22;13033;50.936;5.334;2023-02-27T09:53:33;4.30;99.90
25024;DHT22;13033;50.936;5.334;2023-02-27T10:07:14;5.10;99.90
25024;DHT22;13033;50.936;5.334;2023-02-27T10:15:44;5.20;99.90
25024;DHT22;13033;50.936;5.334;2023-02-27T10:18:16;5.20;99.90
25024;DHT22;13033;50.936;5.334;2023-02-27T10:20:54;5.10;99.90
25024;DHT22;13033;50.936;5.334;2023-02-27T10:23:42;5.10;99.90
25024;DHT22;13033;50.936;5.334;2023-02-27T10:26:21;5.20;99.90
25024;DHT22;13033;50.936;5.334;2023-02-27T10:28:48;5.40;99.90
25024;DHT22;13033;50.936;5.334;2023-02-27T10:31:21;5.40;99.90
25024;DHT22;13033;50.936;5.334;2023-02-27T10:33:48;5.60;99.90
25024;DHT22;13033;50.936;5.334;2023-02-27T10:36:16;5.70;99.90
25024;DHT22;13033;50.936;5.334;2023-02-27T10:38:55;5.80;99.90
25024;DHT22;13033;50.936;5.334;2023-02-27T10:41:23;5.60;99.90
25024;DHT22;13033;50.936;5.334;2023-02-27T10:43:52;5.80;99.90
25024;DHT22;13033;50.936;5.334;2023-02-27T10:46:25;5.80;99.90
25024;DHT22;13033;50.936;5.334;2023-02-27T10:48:52;5.50;99.90
25024;DHT22;13033;50.936;5.334;2023-02-27T10:51:28;5.40;99.90
25024;DHT22;13033;50.936;5.334;2023-02-27T10:54:21;5.30;99.90
25024;DHT22;13033;50.936;5.334;2023-02-27T10:56:56;5.10;99.90
25024;DHT22;13033;50.936;5.334;2023-02-27T10:59:25;5.20;99.90
25024;DHT22;13033;50.936;5.334;2023-02-27T11:01:55;5.50;99.90
25024;DHT22;13033;50.936;5.334;2023-02-27T11:06:55;5.70;99.90
25024;DHT22;13033;50.936;5.334;2023-02-27T11:09:24;5.90;99.90
25024;DHT22;13033;50.936;5.334;2023-02-27T11:11:50;5.80;99.90
25024;DHT22;13033;50.936;5.334;2023-02-27T11:14:26;5.70;99.90
25024;DHT22;13033;50.936;5.334;2023-02-27T11:16:54;5.80;99.90
25024;DHT22;13033;50.936;5.334;2023-02-27T11:19:37;5.90;99.90
25024;DHT22;13033;50.936;5.334;2023-02-27T11:22:06;6.10;99.90
25024;DHT22;13033;50.936;5.334;2023-02-27T11:24:33;6.10;99.90
25024;DHT22;13033;50.936;5.334;2023-02-27T11:27:16;6.10;99.90
25024;DHT22;13033;50.936;5.334;2023-02-27T11:29:58;6.10;99.90
25024;DHT22;13033;50.936;5.334;2023-02-27T11:32:25;6.00;99.90
25024;DHT22;13033;50.936;5.334;2023-02-27T11:34:51;6.00;99.90
25024;DHT22;13033;50.936;5.334;2023-02-27T11:37:32;6.10;99.90
25024;DHT22;13033;50.936;5.334;2023-02-27T11:40:24;6.30;99.90
25024;DHT22;13033;50.936;5.334;2023-02-27T11:42:54;6.30;99.90
25024;DHT22;13033;50.936;5.334;2023-02-27T11:47:52;6.30;99.90
25024;DHT22;13033;50.936;5.334;2023-02-27T11:50:34;6.40;99.90
25024;DHT22;13033;50.936;5.334;2023-02-27T11:55:59;6.20;99.90
25024;DHT22;13033;50.936;5.334;2023-02-27T11:58:31;6.20;99.90
25024;DHT22;13033;50.936;5.334;2023-02-27T12:03:54;6.50;99.90
25024;DHT22;13033;50.936;5.334;2023-02-27T12:06:35;6.50;99.90
25024;DHT22;13033;50.936;5.334;2023-02-27T12:09:13;6.20;99.90
25024;DHT22;13033;50.936;5.334;2023-02-27T12:11:44;6.10;99.90
25024;DHT22;13033;50.936;5.334;2023-02-27T12:16:51;6.40;99.90
25024;DHT22;13033;50.936;5.334;2023-02-27T12:20:10;6.50;99.90
25024;DHT22;13033;50.936;5.334;2023-02-27T12:22:22;6.50;99.90
25024;DHT22;13033;50.936;5.334;2023-02-27T12:24:57;6.50;99.90
25024;DHT22;13033;50.936;5.334;2023-02-27T12:27:32;6.70;99.90
25024;DHT22;13033;50.936;5.334;2023-02-27T12:33:02;7.00;99.90
25024;DHT22;13033;50.936;5.334;2023-02-27T12:35:32;7.20;99.90
25024;DHT22;13033;50.936;5.334;2023-02-27T12:37:59;6.80;99.90
25024;DHT22;13033;50.936;5.334;2023-02-27T12:40:30;6.60;99.90
25024;DHT22;13033;50.936;5.334;2023-02-27T12:45:59;7.10;99.90
25024;DHT22;13033;50.936;5.334;2023-02-27T12:55:04;7.80;99.90
25024;DHT22;13033;50.936;5.334;2023-02-27T13:05:15;7.50;99.90
25024;DHT22;13033;50.936;5.334;2023-02-27T13:08:04;7.10;99.90
25024;DHT22;13033;50.936;5.334;2023-02-27T13:10:52;6.80;99.90
25024;DHT22;13033;50.936;5.334;2023-02-27T13:16:30;6.50;99.90
25024;DHT22;13033;50.936;5.334;2023-02-27T13:24:48;6.50;99.90
25024;DHT22;13033;50.936;5.334;2023-02-27T13:27:20;6.60;99.90
25024;DHT22;13033;50.936;5.334;2023-02-27T13:38:01;6.70;99.90
25024;DHT22;13033;50.936;5.334;2023-02-27T13:40:36;6.80;99.90
25024;DHT22;13033;50.936;5.334;2023-02-27T13:43:04;6.50;99.90
25024;DHT22;13033;50.936;5.334;2023-02-27T13:48:37;6.80;99.90
25024;DHT22;13033;50.936;5.334;2023-02-27T13:51:07;6.90;99.90
25024;DHT22;13033;50.936;5.334;2023-02-27T13:53:34;7.10;99.90
25024;DHT22;13033;50.936;5.334;2023-02-27T13:56:19;7.30;99.90
25024;DHT22;13033;50.936;5.334;2023-02-27T13:58:46;7.20;99.90
25024;DHT22;13033;50.936;5.334;2023-02-27T14:01:21;7.30;99.90
25024;DHT22;13033;50.936;5.334;2023-02-27T14:03:55;6.90;99.90
25024;DHT22;13033;50.936;5.334;2023-02-27T14:06:24;6.70;99.90
25024;DHT22;13033;50.936;5.334;2023-02-27T14:08:52;6.60;99.90
25024;DHT22;13033;50.936;5.334;2023-02-27T14:11:30;6.50;99.90
25024;DHT22;13033;50.936;5.334;2023-02-27T14:14:01;6.50;99.90
25024;DHT22;13033;50.936;5.334;2023-02-27T14:26:52;7.00;99.90
25024;DHT22;13033;50.936;5.334;2023-02-27T14:29:28;6.80;99.90
25024;DHT22;13033;50.936;5.334;2023-02-27T14:32:00;6.70;99.90
25024;DHT22;13033;50.936;5.334;2023-02-27T14:34:27;6.50;99.90
25024;DHT22;13033;50.936;5.334;2023-02-27T14:36:56;6.70;99.90
25024;DHT22;13033;50.936;5.334;2023-02-27T14:39:31;6.70;99.90
25024;DHT22;13033;50.936;5.334;2023-02-27T14:42:24;6.80;99.90
25024;DHT22;13033;50.936;5.334;2023-02-27T14:44:55;7.00;99.90
25024;DHT22;13033;50.936;5.334;2023-02-27T14:47:31;6.90;99.90
25024;DHT22;13033;50.936;5.334;2023-02-27T14:49:57;7.00;99.90
25024;DHT22;13033;50.936;5.334;2023-02-27T14:52:28;7.10;99.90
25024;DHT22;13033;50.936;5.334;2023-02-27T14:57:58;7.30;99.90
25024;DHT22;13033;50.936;5.334;2023-02-27T15:00:34;7.40;99.90
25024;DHT22;13033;50.936;5.334;2023-02-27T15:03:23;7.30;99.90
25024;DHT22;13033;50.936;5.334;2023-02-27T15:05:51;7.40;99.90
25024;DHT22;13033;50.936;5.334;2023-02-27T15:08:23;7.30;99.90
25024;DHT22;13033;50.936;5.334;2023-02-27T15:10:50;7.20;99.90
25024;DHT22;13033;50.936;5.334;2023-02-27T15:13:37;7.00;99.90
25024;DHT22;13033;50.936;5.334;2023-02-27T15:18:49;6.70;99.90
25024;DHT22;13033;50.936;5.334;2023-02-27T15:21:17;6.60;99.90
25024;DHT22;13033;50.936;5.334;2023-02-27T15:23:51;6.70;99.90
25024;DHT22;13033;50.936;5.334;2023-02-27T15:26:17;6.80;99.90
25024;DHT22;13033;50.936;5.334;2023-02-27T15:28:43;7.30;99.90
25024;DHT22;13033;50.936;5.334;2023-02-27T15:31:12;8.60;99.90
25024;DHT22;13033;50.936;5.334;2023-02-27T15:33:42;9.30;99.90
25024;DHT22;13033;50.936;5.334;2023-02-27T15:36:19;9.10;99.90
25024;DHT22;13033;50.936;5.334;2023-02-27T15:38:46;8.20;99.90
25024;DHT22;13033;50.936;5.334;2023-02-27T15:41:26;7.70;99.90
25024;DHT22;13033;50.936;5.334;2023-02-27T15:43:52;7.70;99.90
25024;DHT22;13033;50.936;5.334;2023-02-27T15:46:19;8.20;99.90
25024;DHT22;13033;50.936;5.334;2023-02-27T15:48:44;8.10;99.90
25024;DHT22;13033;50.936;5.334;2023-02-27T15:51:11;7.90;99.90
25024;DHT22;13033;50.936;5.334;2023-02-27T15:53:36;8.40;99.90
25024;DHT22;13033;50.936;5.334;2023-02-27T15:56:07;9.40;99.90
25024;DHT22;13033;50.936;5.334;2023-02-27T15:58:48;10.00;97.90
25024;DHT22;13033;50.936;5.334;2023-02-27T16:01:19;9.30;98.40
25024;DHT22;13033;50.936;5.334;2023-02-27T16:03:48;8.60;99.50
25024;DHT22;13033;50.936;5.334;2023-02-27T16:11:49;7.20;99.90
25024;DHT22;13033;50.936;5.334;2023-02-27T16:14:42;7.10;99.90
25024;DHT22;13033;50.936;5.334;2023-02-27T16:17:28;6.90;99.90
25024;DHT22;13033;50.936;5.334;2023-02-27T16:19:57;7.10;99.90
25024;DHT22;13033;50.936;5.334;2023-02-27T16:22:23;7.30;99.90
25024;DHT22;13033;50.936;5.334;2023-02-27T16:24:49;8.00;99.90
25024;DHT22;13033;50.936;5.334;2023-02-27T16:27:26;8.70;99.90
25024;DHT22;13033;50.936;5.334;2023-02-27T16:29:54;9.00;99.90
25024;DHT22;13033;50.936;5.334;2023-02-27T16:32:26;8.40;99.90
25024;DHT22;13033;50.936;5.334;2023-02-27T16:35:03;7.70;99.90
25024;DHT22;13033;50.936;5.334;2023-02-27T16:37:38;7.20;99.90
25024;DHT22;13033;50.936;5.334;2023-02-27T16:40:20;7.00;99.90
25024;DHT22;13033;50.936;5.334;2023-02-27T16:42:50;6.80;99.90
25024;DHT22;13033;50.936;5.334;2023-02-27T16:45:21;6.60;99.90
25024;DHT22;13033;50.936;5.334;2023-02-27T16:47:48;6.60;99.90
25024;DHT22;13033;50.936;5.334;2023-02-27T16:50:23;6.50;99.90
25024;DHT22;13033;50.936;5.334;2023-02-27T16:52:50;6.20;99.90
25024;DHT22;13033;50.936;5.334;2023-02-27T16:55:16;6.10;99.90
25024;DHT22;13033;50.936;5.334;2023-02-27T16:57:42;6.00;99.90
25024;DHT22;13033;50.936;5.334;2023-02-27T17:00:11;5.90;99.90
25024;DHT22;13033;50.936;5.334;2023-02-27T17:02:37;5.80;99.90
25024;DHT22;13033;50.936;5.334;2023-02-27T17:05:03;5.70;99.90
25024;DHT22;13033;50.936;5.334;2023-02-27T17:07:30;5.60;99.90
25024;DHT22;13033;50.936;5.334;2023-02-27T17:09:56;5.50;99.90
25024;DHT22;13033;50.936;5.334;2023-02-27T17:12:21;5.50;99.90
25024;DHT22;13033;50.936;5.334;2023-02-27T17:14:47;5.50;99.90
25024;DHT22;13033;50.936;5.334;2023-02-27T17:17:13;5.50;99.90
25024;DHT22;13033;50.936;5.334;2023-02-27T17:19:39;5.50;99.90
25024;DHT22;13033;50.936;5.334;2023-02-27T17:22:04;5.50;99.90
25024;DHT22;13033;50.936;5.334;2023-02-27T17:24:30;5.50;99.90
25024;DHT22;13033;50.936;5.334;2023-02-27T17:26:56;5.50;99.90
25024;DHT22;13033;50.936;5.334;2023-02-27T17:29:21;5.40;99.90
25024;DHT22;13033;50.936;5.334;2023-02-27T17:31:48;5.50;99.90
25024;DHT22;13033;50.936;5.334;2023-02-27T17:34:14;5.40;99.90
25024;DHT22;13033;50.936;5.334;2023-02-27T17:36:41;5.30;99.90
25024;DHT22;13033;50.936;5.334;2023-02-27T17:39:08;5.20;99.90
25024;DHT22;13033;50.936;5.334;2023-02-27T17:41:35;5.10;99.90
25024;DHT22;13033;50.936;5.334;2023-02-27T17:44:00;5.10;99.90
25024;DHT22;13033;50.936;5.334;2023-02-27T17:46:28;5.10;99.90
25024;DHT22;13033;50.936;5.334;2023-02-27T17:48:54;5.00;99.90
25024;DHT22;13033;50.936;5.334;2023-02-27T17:51:24;4.90;99.90
25024;DHT22;13033;50.936;5.334;2023-02-27T17:53:50;4.90;99.90
25024;DHT22;13033;50.936;5.334;2023-02-27T17:56:16;4.90;99.90
25024;DHT22;13033;50.936;5.334;2023-02-27T17:58:42;4.80;99.90
25024;DHT22;13033;50.936;5.334;2023-02-27T18:01:12;4.70;99.90
25024;DHT22;13033;50.936;5.334;2023-02-27T18:03:39;4.70;99.90
25024;DHT22;13033;50.936;5.334;2023-02-27T18:06:05;4.70;99.90
25024;DHT22;13033;50.936;5.334;2023-02-27T18:08:32;4.70;99.90
25024;DHT22;13033;50.936;5.334;2023-02-27T18:10:58;4.60;99.90
25024;DHT22;13033;50.936;5.334;2023-02-27T18:13:25;4.50;99.90
25024;DHT22;13033;50.936;5.334;2023-02-27T18:15:52;4.40;99.90
25024;DHT22;13033;50.936;5.334;2023-02-27T18:18:18;4.50;99.90
25024;DHT22;13033;50.936;5.334;2023-02-27T18:20:45;4.50;99.90
25024;DHT22;13033;50.936;5.334;2023-02-27T18:23:11;4.50;99.90
25024;DHT22;13033;50.936;5.334;2023-02-27T18:25:37;4.50;99.90
25024;DHT22;13033;50.936;5.334;2023-02-27T18:28:04;4.60;99.90
25024;DHT22;13033;50.936;5.334;2023-02-27T18:30:31;4.60;99.90
25024;DHT22;13033;50.936;5.334;2023-02-27T18:32:59;4.60;99.90
25024;DHT22;13033;50.936;5.334;2023-02-27T18:35:26;4.50;99.90
25024;DHT22;13033;50.936;5.334;2023-02-27T18:37:51;4.60;99.90
25024;DHT22;13033;50.936;5.334;2023-02-27T18:40:17;4.60;99.90
25024;DHT22;13033;50.936;5.334;2023-02-27T18:42:47;4.50;99.90
25024;DHT22;13033;50.936;5.334;2023-02-27T18:45:13;4.30;99.90
25024;DHT22;13033;50.936;5.334;2023-02-27T18:47:38;4.30;99.90
25024;DHT22;13033;50.936;5.334;2023-02-27T18:50:04;4.20;99.90
25024;DHT22;13033;50.936;5.334;2023-02-27T18:52:30;4.20;99.90
25024;DHT22;13033;50.936;5.334;2023-02-27T18:54:56;4.10;99.90
25024;DHT22;13033;50.936;5.334;2023-02-27T18:57:22;4.20;99.90